Main page
METAR-TAF:

METAR-TAF

Airports :

Îles-de-la-Madeleine Airport

Magdalen Islands, Quebec, Canada

latitude: 47-25N, longitude: 061-47W, elevation: 10 m

Current weather observation

The report was made 39 minutes ago, at 22:00 UTC
Wind 34 kt from the North/Northwest with gusts up to 50 kt
Temperature -12°C
Humidity 72%
Pressure 1014 hPa
Visibility: 4.8 km
Overcast at a height of 2000 ft
light snow showers, Blowing snow

METAR: CYGR 172200Z 34034G50KT 3SM -SHSN BLSN OVC020 M12/M16 A2995 RMK CU8 VIS VRB 1-5 SLP144

Time: 17:39 (22:39 UTC)

Forecast

The report was made 3 hours and 1 minutes ago, at 19:38 UTC
Forecast valid from 17 at 20 UTC to 18 at 03 UTC
Wind 30 kt from the North with gusts up to 40 kt
Visibility: 1.6 km
Overcast at a height of 2000 ft
light snow, Blowing snow
Temporary
from 17 at 20 UTC to 18 at 03 UTC
Visibility: 4.8 km
Overcast at a height of 2500 ft
light snow

TAF: CYGR 171938Z 1720/1803 36030G40KT 1SM -SN BLSN OVC020 TEMPO 1720/1803 3SM -SN OVC025 RMK NXT FCST WILL BE ISSUED AT 181145Z

Weather observations and forecasts of more than 4000 airports (METAR and TAF reports).

The available stations are represented by yellow and red dots on the map.

Hover mouse over dot to see the name of the station.

Then click to see weather observations and forecasts.

To change the map : click on the green buttons with a black cross to zoom in, on the green button with a dash to zoom out, or on the green arrows for adjacent maps.


METAR-TAF: